createdAt,value
2023-01-20T00:01:17.056Z,8.47
2023-01-20T00:03:45.770Z,10.40
2023-01-20T00:06:13.756Z,12.00
2023-01-20T00:08:42.356Z,10.90
2023-01-20T00:11:14.550Z,10.97
2023-01-20T00:13:43.625Z,11.17
2023-01-20T00:16:12.717Z,11.37
2023-01-20T00:18:41.674Z,11.10
2023-01-20T00:21:11.904Z,11.10
2023-01-20T00:23:40.430Z,11.70
2023-01-20T00:26:09.572Z,10.60
2023-01-20T00:28:37.729Z,10.90
2023-01-20T00:31:15.492Z,11.43
2023-01-20T00:33:43.715Z,10.80
2023-01-20T00:36:13.187Z,11.53
2023-01-20T00:38:41.339Z,10.93
2023-01-20T00:41:09.784Z,10.63
2023-01-20T00:43:37.790Z,11.27
2023-01-20T00:46:06.556Z,11.07
2023-01-20T00:48:36.279Z,10.73
2023-01-20T00:51:05.061Z,10.93
2023-01-20T00:53:34.768Z,10.90
2023-01-20T00:56:02.820Z,12.10
2023-01-20T00:58:30.665Z,10.47
2023-01-20T01:00:59.015Z,11.73
2023-01-20T01:03:28.774Z,13.03
2023-01-20T01:06:06.913Z,11.87
2023-01-20T01:08:35.922Z,12.27
2023-01-20T01:11:04.003Z,12.53
2023-01-20T01:13:32.296Z,11.90
2023-01-20T01:16:00.453Z,12.47
2023-01-20T01:18:28.381Z,12.07
2023-01-20T01:20:57.880Z,11.83
2023-01-20T01:23:25.763Z,13.17
2023-01-20T01:25:53.516Z,11.63
2023-01-20T01:28:21.220Z,10.97
2023-01-20T01:30:48.957Z,10.93
2023-01-20T01:33:16.724Z,12.07
2023-01-20T01:35:44.509Z,12.17
2023-01-20T01:38:13.615Z,12.57
2023-01-20T01:40:41.344Z,11.33
2023-01-20T01:43:23.453Z,11.57
2023-01-20T01:45:51.295Z,11.47
2023-01-20T01:48:21.471Z,11.90
2023-01-20T01:50:54.376Z,10.83
2023-01-20T01:53:24.127Z,10.97
2023-01-20T01:55:57.182Z,11.73
2023-01-20T01:58:29.197Z,10.43
2023-01-20T02:00:56.997Z,11.83
2023-01-20T02:03:25.661Z,10.87
2023-01-20T02:05:56.022Z,12.10
2023-01-20T02:08:26.470Z,10.57
2023-01-20T02:10:54.246Z,11.77
2023-01-20T02:13:22.023Z,12.10
2023-01-20T02:15:58.122Z,12.90
2023-01-20T02:18:39.434Z,11.77
2023-01-20T02:21:49.383Z,12.23
2023-01-20T02:24:56.480Z,12.60
2023-01-20T02:27:40.705Z,13.07
2023-01-20T02:30:30.801Z,13.20
2023-01-20T02:33:05.578Z,12.60
2023-01-20T02:35:39.715Z,12.37
2023-01-20T02:38:16.194Z,13.17
2023-01-20T02:40:53.233Z,13.60
2023-01-20T02:43:29.071Z,13.33
2023-01-20T02:46:02.572Z,13.93
2023-01-20T02:48:39.745Z,13.77
2023-01-20T02:51:13.247Z,14.30
2023-01-20T02:53:47.889Z,14.87
2023-01-20T02:56:17.258Z,15.00
2023-01-20T02:58:50.063Z,13.47
2023-01-20T03:01:23.768Z,13.93
2023-01-20T03:03:56.514Z,13.87
2023-01-20T03:06:28.273Z,14.10
2023-01-20T03:08:58.557Z,14.60
2023-01-20T03:11:26.368Z,14.37
2023-01-20T03:14:00.594Z,14.17
2023-01-20T03:16:29.752Z,14.13
2023-01-20T03:18:59.301Z,14.70
2023-01-20T03:21:27.859Z,14.30
2023-01-20T03:24:00.763Z,13.17
2023-01-20T03:26:30.349Z,13.93
2023-01-20T03:28:58.942Z,14.07
2023-01-20T03:31:30.526Z,14.70
2023-01-20T03:34:03.261Z,13.50
2023-01-20T03:36:32.943Z,13.63
2023-01-20T03:39:01.721Z,13.80
2023-01-20T03:41:41.256Z,15.27
2023-01-20T03:44:13.595Z,14.50
2023-01-20T03:46:47.048Z,14.13
2023-01-20T03:49:25.338Z,13.83
2023-01-20T03:52:01.491Z,14.60
2023-01-20T03:54:36.586Z,14.50
2023-01-20T03:57:09.290Z,13.23
2023-01-20T03:59:41.273Z,13.53
2023-01-20T04:02:11.466Z,12.93
2023-01-20T04:04:44.390Z,13.77
2023-01-20T04:07:16.635Z,13.63
2023-01-20T04:09:49.159Z,14.00
2023-01-20T04:12:17.014Z,15.33
2023-01-20T04:14:44.870Z,15.77
2023-01-20T04:17:13.863Z,15.27
2023-01-20T04:19:43.036Z,15.60
2023-01-20T04:22:17.388Z,15.20
2023-01-20T04:24:51.478Z,14.97
2023-01-20T04:27:19.307Z,14.57
2023-01-20T04:29:47.046Z,16.10
2023-01-20T04:32:14.957Z,15.10
2023-01-20T04:34:44.091Z,17.07
2023-01-20T04:37:11.878Z,14.63
2023-01-20T04:39:39.653Z,15.93
2023-01-20T04:42:07.392Z,16.10
2023-01-20T04:44:35.135Z,16.03
2023-01-20T04:47:02.911Z,16.70
2023-01-20T04:49:30.570Z,15.23
2023-01-20T04:51:59.632Z,16.57
2023-01-20T04:54:27.366Z,16.60
2023-01-20T04:56:55.077Z,15.83
2023-01-20T04:59:22.962Z,15.43
2023-01-20T05:01:50.783Z,15.87
2023-01-20T05:04:18.626Z,15.70
2023-01-20T05:06:48.677Z,14.23
2023-01-20T05:09:20.752Z,14.90
2023-01-20T05:11:48.562Z,15.30
2023-01-20T05:14:16.314Z,14.87
2023-01-20T05:16:44.174Z,16.27
2023-01-20T05:19:12.012Z,14.73
2023-01-20T05:21:39.804Z,14.57
2023-01-20T05:24:07.921Z,14.73
2023-01-20T05:26:37.838Z,14.97
2023-01-20T05:29:05.909Z,15.20
2023-01-20T05:31:34.264Z,14.20
2023-01-20T05:34:02.179Z,14.10
2023-01-20T05:36:29.956Z,14.37
2023-01-20T05:38:57.876Z,15.07
2023-01-20T05:41:25.667Z,14.97
2023-01-20T05:43:55.585Z,14.83
2023-01-20T05:46:23.902Z,13.87
2023-01-20T05:48:51.701Z,13.53
2023-01-20T05:51:19.613Z,13.53
2023-01-20T05:53:47.361Z,13.90
2023-01-20T05:56:16.074Z,13.53
2023-01-20T05:58:44.414Z,12.03
2023-01-20T06:01:15.305Z,13.73
2023-01-20T06:03:43.632Z,13.23
2023-01-20T06:06:15.574Z,13.90
2023-01-20T06:08:43.514Z,12.17
2023-01-20T06:11:11.978Z,11.77
2023-01-20T06:13:40.055Z,12.33
2023-01-20T06:16:08.481Z,12.63
2023-01-20T06:18:37.758Z,12.00
2023-01-20T06:21:05.872Z,11.20
2023-01-20T06:23:33.683Z,11.47
2023-01-20T06:26:02.821Z,11.10
2023-01-20T06:28:30.700Z,10.37
2023-01-20T06:31:02.876Z,10.23
2023-01-20T06:33:31.076Z,10.80
2023-01-20T06:36:00.508Z,11.50
2023-01-20T06:38:31.527Z,10.67
2023-01-20T06:40:59.928Z,9.63
2023-01-20T06:43:29.678Z,9.70
2023-01-20T06:46:01.126Z,10.23
2023-01-20T06:48:29.893Z,9.37
2023-01-20T06:51:03.290Z,10.07
2023-01-20T06:53:31.545Z,10.20
2023-01-20T06:56:00.869Z,9.27
2023-01-20T06:58:30.840Z,10.00
2023-01-20T07:01:04.672Z,9.80
2023-01-20T07:03:32.541Z,9.97
2023-01-20T07:06:03.209Z,10.97
2023-01-20T07:08:31.333Z,9.97
2023-01-20T07:10:59.134Z,11.50
2023-01-20T07:13:27.058Z,10.57
2023-01-20T07:15:54.906Z,11.67
2023-01-20T07:18:22.953Z,11.30
2023-01-20T07:20:54.536Z,11.27
2023-01-20T07:23:24.002Z,11.23
2023-01-20T07:25:58.688Z,10.73
2023-01-20T07:28:26.698Z,11.13
2023-01-20T07:30:54.664Z,11.17
2023-01-20T07:33:22.780Z,11.67
2023-01-20T07:35:54.262Z,11.33
2023-01-20T07:38:23.378Z,12.10
2023-01-20T07:40:51.225Z,12.47
2023-01-20T07:43:18.956Z,12.83
2023-01-20T07:45:46.739Z,12.73
2023-01-20T07:48:14.514Z,12.17
2023-01-20T07:50:42.281Z,11.23
2023-01-20T07:53:09.973Z,11.23
2023-01-20T07:55:39.088Z,11.67
2023-01-20T07:58:06.786Z,11.00
2023-01-20T08:00:34.908Z,11.40
2023-01-20T08:03:02.688Z,11.70
2023-01-20T08:05:30.389Z,9.90
2023-01-20T08:07:58.168Z,11.07
2023-01-20T08:10:25.875Z,11.07
2023-01-20T08:12:55.029Z,8.70
2023-01-20T08:15:22.947Z,8.23
2023-01-20T08:17:54.597Z,7.57
2023-01-20T08:20:22.569Z,10.07
2023-01-20T08:22:50.316Z,8.47
2023-01-20T08:25:18.135Z,8.03
2023-01-20T08:27:45.904Z,8.13
2023-01-20T08:30:15.639Z,8.30
2023-01-20T08:32:43.409Z,8.30
2023-01-20T08:35:11.390Z,7.70
2023-01-20T08:37:39.239Z,8.10
2023-01-20T08:40:08.588Z,7.40
2023-01-20T08:42:36.417Z,7.63
2023-01-20T08:45:04.878Z,7.60
2023-01-20T08:47:36.790Z,7.13
2023-01-20T08:50:05.255Z,7.90
2023-01-20T08:52:34.023Z,7.73
2023-01-20T08:55:01.907Z,7.50
2023-01-20T08:57:30.358Z,6.50
2023-01-20T08:59:58.153Z,8.40
2023-01-20T09:02:25.925Z,8.37
2023-01-20T09:04:55.060Z,6.40
2023-01-20T09:07:22.866Z,7.70
2023-01-20T09:09:50.915Z,6.97
2023-01-20T09:12:18.691Z,7.03
2023-01-20T09:14:46.776Z,6.97
2023-01-20T09:17:14.795Z,7.23
2023-01-20T09:19:42.555Z,7.10
2023-01-20T09:22:11.634Z,6.67
2023-01-20T09:24:40.287Z,7.70
2023-01-20T09:27:08.225Z,6.40
2023-01-20T09:29:36.768Z,6.43
2023-01-20T09:32:04.814Z,6.93
2023-01-20T09:34:32.735Z,7.40
2023-01-20T09:37:23.159Z,6.83
2023-01-20T09:40:09.466Z,7.70
2023-01-20T09:43:08.832Z,7.60
2023-01-20T09:45:44.158Z,7.80
2023-01-20T09:48:36.923Z,7.73
2023-01-20T09:51:29.897Z,8.57
2023-01-20T09:54:05.200Z,7.13
2023-01-20T09:56:42.840Z,7.03
2023-01-20T09:59:13.319Z,8.07
2023-01-20T10:01:46.502Z,6.97
2023-01-20T10:04:20.099Z,7.70
2023-01-20T10:06:51.061Z,7.63
2023-01-20T10:09:29.040Z,7.17
2023-01-20T10:12:07.079Z,7.40
2023-01-20T10:14:39.440Z,7.07
2023-01-20T10:17:15.010Z,6.90
2023-01-20T10:19:50.623Z,6.93
2023-01-20T10:22:24.095Z,7.33
2023-01-20T10:24:58.055Z,7.17
2023-01-20T10:27:30.850Z,6.30
2023-01-20T10:30:05.140Z,7.00
2023-01-20T10:32:36.604Z,6.97
2023-01-20T10:35:15.377Z,7.50
2023-01-20T10:37:43.612Z,6.67
2023-01-20T10:40:20.611Z,6.93
2023-01-20T10:42:53.495Z,7.93
2023-01-20T10:45:28.503Z,7.83
2023-01-20T10:48:04.148Z,6.70
2023-01-20T10:50:42.290Z,6.80
2023-01-20T10:53:21.563Z,7.30
2023-01-20T10:56:04.851Z,6.83
2023-01-20T10:58:37.636Z,7.00
2023-01-20T11:01:08.955Z,7.57
2023-01-20T11:03:40.480Z,5.70
2023-01-20T11:06:08.764Z,6.30
2023-01-20T11:08:36.481Z,6.73
2023-01-20T11:11:12.182Z,6.03
2023-01-20T11:13:41.290Z,6.57
2023-01-20T11:16:15.149Z,6.20
2023-01-20T11:18:42.973Z,6.10
2023-01-20T11:21:13.286Z,6.70
2023-01-20T11:23:43.597Z,6.63
2023-01-20T11:26:21.214Z,7.00
2023-01-20T11:28:54.958Z,6.93
2023-01-20T11:31:34.223Z,7.23
2023-01-20T11:34:04.300Z,6.80
2023-01-20T11:36:32.071Z,7.20
2023-01-20T11:38:59.861Z,6.90
2023-01-20T11:41:29.590Z,7.03
2023-01-20T11:44:00.045Z,6.87
2023-01-20T11:46:31.197Z,7.80
2023-01-20T11:49:17.884Z,8.40
2023-01-20T11:51:51.093Z,8.77
2023-01-20T11:54:20.860Z,8.90
2023-01-20T11:56:52.551Z,8.60
2023-01-20T11:59:28.457Z,8.57
2023-01-20T12:02:01.521Z,7.77
2023-01-20T12:04:48.335Z,9.07
2023-01-20T12:07:23.583Z,9.17
2023-01-20T12:09:54.819Z,9.47
2023-01-20T12:12:32.956Z,9.40
2023-01-20T12:15:06.822Z,9.17
2023-01-20T12:17:42.734Z,9.77
2023-01-20T12:20:18.473Z,8.80
2023-01-20T12:22:58.635Z,8.70
2023-01-20T12:25:31.042Z,8.30
2023-01-20T12:28:04.502Z,8.87
2023-01-20T12:30:40.160Z,8.67
2023-01-20T12:33:21.572Z,8.83
2023-01-20T12:36:25.677Z,8.23
2023-01-20T12:39:09.259Z,9.27
2023-01-20T12:41:56.405Z,9.13
2023-01-20T12:44:32.113Z,8.27
2023-01-20T12:47:11.837Z,8.40
2023-01-20T12:49:55.760Z,8.23
2023-01-20T12:52:40.226Z,7.33
2023-01-20T12:55:38.827Z,8.30
2023-01-20T12:58:19.090Z,7.00
2023-01-20T13:01:04.860Z,8.63
2023-01-20T13:04:09.309Z,9.27
2023-01-20T13:06:50.277Z,8.50
2023-01-20T13:09:53.598Z,8.90
2023-01-20T13:12:37.819Z,8.73
2023-01-20T13:15:18.103Z,9.27
2023-01-20T13:17:55.680Z,8.87
2023-01-20T13:20:28.377Z,8.37
2023-01-20T13:22:57.356Z,9.13
2023-01-20T13:25:25.743Z,9.23
2023-01-20T13:27:56.690Z,9.20
2023-01-20T13:30:42.960Z,10.33
2023-01-20T13:33:27.892Z,9.60
2023-01-20T13:35:59.937Z,7.80
2023-01-20T13:38:37.845Z,7.97
2023-01-20T13:41:06.264Z,9.37
2023-01-20T13:43:47.900Z,9.10
2023-01-20T13:46:38.509Z,9.13
2023-01-20T13:49:28.798Z,9.37
2023-01-20T13:52:00.801Z,8.80
2023-01-20T13:54:47.748Z,10.47
2023-01-20T13:57:45.341Z,10.07
2023-01-20T14:00:18.467Z,9.67
2023-01-20T14:02:48.106Z,11.93
2023-01-20T14:05:31.968Z,13.13
2023-01-20T14:08:01.494Z,12.80
2023-01-20T14:10:30.383Z,13.37
2023-01-20T14:12:58.086Z,12.60
2023-01-20T14:15:37.254Z,12.80
2023-01-20T14:18:05.888Z,13.90
2023-01-20T14:20:58.855Z,14.70
2023-01-20T14:23:33.900Z,12.33
2023-01-20T14:26:04.187Z,11.20
2023-01-20T14:28:32.493Z,9.37
2023-01-20T14:31:35.280Z,9.23
2023-01-20T14:34:22.911Z,9.07
2023-01-20T14:36:52.201Z,9.07
2023-01-20T14:39:24.350Z,8.97
2023-01-20T14:41:53.384Z,8.30
2023-01-20T14:44:23.262Z,8.60
2023-01-20T14:46:53.299Z,8.87
2023-01-20T14:49:23.637Z,8.00
2023-01-20T14:51:52.889Z,8.50
2023-01-20T14:54:46.412Z,7.90
2023-01-20T14:57:23.060Z,9.53
2023-01-20T15:00:03.537Z,9.13
2023-01-20T15:02:33.314Z,8.73
2023-01-20T15:05:01.247Z,8.17
2023-01-20T15:07:29.210Z,8.17
2023-01-20T15:10:03.148Z,7.47
2023-01-20T15:12:42.427Z,8.00
2023-01-20T15:15:16.514Z,8.27
2023-01-20T15:18:21.392Z,7.47
2023-01-20T15:20:52.767Z,8.00
2023-01-20T15:23:32.468Z,8.23
2023-01-20T15:26:09.935Z,8.27
2023-01-20T15:28:44.698Z,8.43
2023-01-20T15:31:15.298Z,8.43
2023-01-20T15:33:43.589Z,9.53
2023-01-20T15:36:21.877Z,8.77
2023-01-20T15:38:49.971Z,8.57
2023-01-20T15:41:19.829Z,9.10
2023-01-20T15:43:49.097Z,11.20
2023-01-20T15:46:18.531Z,10.93
2023-01-20T15:48:47.165Z,11.57
2023-01-20T15:51:19.138Z,11.20
2023-01-20T15:53:47.740Z,11.60
2023-01-20T15:56:20.711Z,12.00
2023-01-20T15:58:49.471Z,11.00
2023-01-20T16:01:19.242Z,11.00
2023-01-20T16:03:47.332Z,11.40
2023-01-20T16:06:17.078Z,12.07
2023-01-20T16:08:47.115Z,13.17
2023-01-20T16:11:15.388Z,12.33
2023-01-20T16:13:44.834Z,11.90
2023-01-20T16:16:14.574Z,12.27
2023-01-20T16:18:42.703Z,11.03
2023-01-20T16:21:11.711Z,13.37
2023-01-20T16:23:39.684Z,11.33
2023-01-20T16:26:19.971Z,11.17
2023-01-20T16:28:49.116Z,10.73
2023-01-20T16:31:17.399Z,10.73
2023-01-20T16:33:45.264Z,11.90
2023-01-20T16:36:14.442Z,11.03
2023-01-20T16:38:42.578Z,11.03
2023-01-20T16:41:16.287Z,10.30
2023-01-20T16:43:44.573Z,10.07
2023-01-20T16:46:16.461Z,9.40
2023-01-20T16:48:44.913Z,10.70
2023-01-20T16:51:14.215Z,9.37
2023-01-20T16:53:42.236Z,9.33
2023-01-20T16:56:15.081Z,9.27
2023-01-20T16:58:42.914Z,9.87
2023-01-20T17:01:12.695Z,9.57
2023-01-20T17:03:44.325Z,9.57
2023-01-20T17:06:18.183Z,9.03
2023-01-20T17:08:46.867Z,8.43
2023-01-20T17:11:17.951Z,9.77
2023-01-20T17:13:45.703Z,9.67
2023-01-20T17:16:14.232Z,9.40
2023-01-20T17:18:45.530Z,8.93
2023-01-20T17:21:14.306Z,9.33
2023-01-20T17:23:42.317Z,10.40
2023-01-20T17:26:10.990Z,9.10
2023-01-20T17:28:38.666Z,10.03
2023-01-20T17:31:07.772Z,9.80
2023-01-20T17:33:35.521Z,9.37
2023-01-20T17:36:06.734Z,10.07
2023-01-20T17:38:35.541Z,9.33
2023-01-20T17:41:04.692Z,10.30
2023-01-20T17:43:33.491Z,8.83
2023-01-20T17:46:01.327Z,8.33
2023-01-20T17:48:29.243Z,8.37
2023-01-20T17:50:59.125Z,9.20
2023-01-20T17:53:28.283Z,8.80
2023-01-20T17:56:10.917Z,8.90
2023-01-20T17:58:40.200Z,8.53
2023-01-20T18:01:13.519Z,9.77
2023-01-20T18:03:43.100Z,9.27
2023-01-20T18:06:12.732Z,8.87
2023-01-20T18:08:42.128Z,9.07
2023-01-20T18:11:12.552Z,9.43
2023-01-20T18:13:40.268Z,9.30
2023-01-20T18:16:11.217Z,9.07
2023-01-20T18:18:39.452Z,9.47
2023-01-20T18:21:12.178Z,9.87
2023-01-20T18:23:42.472Z,9.63
2023-01-20T18:26:11.612Z,9.00
2023-01-20T18:28:39.421Z,9.17
2023-01-20T18:31:09.743Z,9.80
2023-01-20T18:33:39.832Z,9.17
2023-01-20T18:36:10.119Z,9.00
2023-01-20T18:38:43.001Z,9.13
2023-01-20T18:41:12.921Z,9.60
2023-01-20T18:43:41.610Z,8.93
2023-01-20T18:46:10.246Z,9.90
2023-01-20T18:48:39.639Z,9.63
2023-01-20T18:51:10.264Z,9.93
2023-01-20T18:53:38.130Z,9.37
2023-01-20T18:56:08.594Z,9.57
2023-01-20T18:58:39.562Z,9.67
2023-01-20T19:01:09.004Z,11.27
2023-01-20T19:03:37.764Z,9.77
2023-01-20T19:06:07.857Z,10.63
2023-01-20T19:08:35.936Z,10.87
2023-01-20T19:11:05.252Z,11.10
2023-01-20T19:13:33.431Z,11.50
2023-01-20T19:16:02.903Z,11.07
2023-01-20T19:18:30.784Z,11.27
2023-01-20T19:21:07.838Z,11.40
2023-01-20T19:23:39.745Z,12.00
2023-01-20T19:26:09.994Z,11.70
2023-01-20T19:28:38.454Z,12.07
2023-01-20T19:31:09.806Z,11.47
2023-01-20T19:33:38.617Z,13.10
2023-01-20T19:36:08.544Z,12.63
2023-01-20T19:38:36.453Z,11.63
2023-01-20T19:41:11.849Z,11.83
2023-01-20T19:43:40.227Z,12.10
2023-01-20T19:46:11.468Z,11.67
2023-01-20T19:48:39.795Z,11.40
2023-01-20T19:51:11.316Z,11.77
2023-01-20T19:53:40.023Z,11.20
2023-01-20T19:56:10.118Z,12.80
2023-01-20T19:58:38.725Z,12.03
2023-01-20T20:01:09.129Z,11.90
2023-01-20T20:03:37.309Z,12.33
2023-01-20T20:06:06.970Z,12.50
2023-01-20T20:08:36.179Z,12.37
2023-01-20T20:11:04.376Z,11.93
2023-01-20T20:13:32.082Z,12.17
2023-01-20T20:16:03.488Z,11.83
2023-01-20T20:18:33.205Z,12.70
2023-01-20T20:21:00.995Z,11.93
2023-01-20T20:23:29.860Z,12.70
2023-01-20T20:25:57.788Z,11.70
2023-01-20T20:28:26.203Z,11.80
2023-01-20T20:30:55.518Z,12.10
2023-01-20T20:33:23.999Z,12.23
2023-01-20T20:35:53.124Z,11.07
2023-01-20T20:38:20.941Z,11.50
2023-01-20T20:40:48.734Z,11.60
2023-01-20T20:43:16.483Z,11.17
2023-01-20T20:45:44.256Z,11.93
2023-01-20T20:48:11.992Z,11.03
2023-01-20T20:50:39.732Z,11.17
2023-01-20T20:53:08.767Z,11.67
2023-01-20T20:55:40.384Z,11.07
2023-01-20T20:58:09.217Z,11.00
2023-01-20T21:00:37.302Z,11.17
2023-01-20T21:03:06.801Z,11.83
2023-01-20T21:05:34.919Z,11.50
2023-01-20T21:08:04.634Z,11.53
2023-01-20T21:10:34.033Z,11.47
2023-01-20T21:13:01.804Z,11.50
2023-01-20T21:15:30.481Z,11.20
2023-01-20T21:17:58.392Z,11.37
2023-01-20T21:20:26.307Z,10.10
2023-01-20T21:22:56.192Z,10.97
2023-01-20T21:25:26.061Z,10.90
2023-01-20T21:27:55.225Z,11.10
2023-01-20T21:30:22.946Z,10.63
2023-01-20T21:32:50.705Z,10.50
2023-01-20T21:35:18.485Z,10.23
2023-01-20T21:37:46.334Z,9.60
2023-01-20T21:40:14.828Z,11.40
2023-01-20T21:42:42.831Z,10.30
2023-01-20T21:45:11.641Z,10.27
2023-01-20T21:47:39.427Z,10.67
2023-01-20T21:50:25.402Z,10.53
2023-01-20T21:52:53.154Z,10.30
2023-01-20T21:55:21.515Z,10.53
2023-01-20T21:57:51.505Z,10.47
2023-01-20T22:00:21.999Z,10.67
2023-01-20T22:02:49.794Z,10.47
2023-01-20T22:05:18.172Z,10.87
2023-01-20T22:07:47.808Z,11.33
2023-01-20T22:10:15.806Z,10.53
2023-01-20T22:12:43.693Z,10.47
2023-01-20T22:15:12.304Z,10.60
2023-01-20T22:17:41.502Z,9.83
2023-01-20T22:20:10.913Z,10.60
2023-01-20T22:22:38.754Z,10.00
2023-01-20T22:25:07.451Z,10.13
2023-01-20T22:27:35.268Z,11.00
2023-01-20T22:30:03.048Z,11.97
2023-01-20T22:32:30.797Z,11.07
2023-01-20T22:34:59.916Z,11.07
2023-01-20T22:37:27.808Z,11.57
2023-01-20T22:39:55.788Z,11.37
2023-01-20T22:42:23.940Z,10.20
2023-01-20T22:44:51.764Z,11.20
2023-01-20T22:47:19.473Z,10.50
2023-01-20T22:49:47.187Z,11.27
2023-01-20T22:52:16.293Z,11.50
2023-01-20T22:54:45.689Z,11.77
2023-01-20T22:57:13.370Z,12.17
2023-01-20T22:59:41.102Z,11.87
2023-01-20T23:02:09.725Z,11.73
2023-01-20T23:04:37.442Z,12.00
2023-01-20T23:07:05.135Z,12.13
2023-01-20T23:09:34.324Z,12.80
2023-01-20T23:12:02.069Z,12.83
2023-01-20T23:14:44.223Z,11.43
2023-01-20T23:17:12.030Z,10.97
2023-01-20T23:19:39.791Z,12.10
2023-01-20T23:22:08.403Z,11.73
2023-01-20T23:24:37.462Z,11.30
2023-01-20T23:27:05.288Z,11.87
2023-01-20T23:29:33.479Z,11.47
2023-01-20T23:32:04.030Z,11.13
2023-01-20T23:34:33.192Z,11.23
2023-01-20T23:37:00.997Z,12.70
2023-01-20T23:39:31.947Z,12.50
2023-01-20T23:42:01.944Z,12.07
2023-01-20T23:44:31.621Z,12.03
2023-01-20T23:46:59.345Z,12.87
2023-01-20T23:49:27.126Z,12.97
2023-01-20T23:51:54.884Z,12.77
2023-01-20T23:54:23.167Z,12.93
2023-01-20T23:56:50.923Z,12.67
2023-01-20T23:59:20.120Z,12.00
